Echo, LA (71330)

1:32 AM CST on December 28, 2014 (GMT -0600)
Hessmer | Change Station
CLOSE
Current Station
Personal Weather Station
Location: Hessmer, LA
Elevation: 82 ft
Nearby Weather Stations

Elev 82 ft 31.05 °N, 92.12 °W | Updated 3 minutes ago

Rain
Rain
54.0 °F
Feels Like 54.0 °F
N
3.7
Wind Variable Wind from North

Today
High -- | Low -- °F
--% Chance of Precip.
Yesterday
High -- | Low -- °F
Precip. -- in
7:06 AM 5:15 PM
Waxing Crescent, 45% visible
Pressure 30.10 in
Visibility 10.0 miles
Clouds Overcast 400 ft
Dew Point 54 °F
Humidity 99%
Rainfall 0.18 in
Snow Depth Not available.
UV 0 out of 12
Pollen .60 out of 12
Air Quality Not available.
Flu Activity Not available.
SPECI KESF 280723Z AUTO 31004KT 10SM RA OVC004 11/10 A3010 RMK AO2 CIG 003V008 P0005 T01110100

More Conditions Fewer Conditions

Pressure 30.10 in
Visibility 10.0 miles
Clouds Overcast 400 ft
Dew Point 54 °F
Humidity 99%
Rainfall 0.18 in
Snow Depth Not available.
UV 0 out of 12
Pollen .60 out of 12
Air Quality Not available.
Flu Activity Not available.
SPECI KESF 280723Z AUTO 31004KT 10SM RA OVC004 11/10 A3010 RMK AO2 CIG 003V008 P0005 T01110100

More Conditions Fewer Conditions

10-Day Weather Forecast

Almanac

Astronomy

Dec. 28, 2014 Rise Set
Actual Time
Civil Twilight
Nautical Twilight
Astronomical Twilight
Moon
Length of Visible Light
Length of Day
Tomorrow will be .
, % of the Moon is Illuminated

Today's Extremes

State Highs State Lows

Community

WunderPhotos

Upload Photos

1,781,210 photos uploaded!

WunderBlogs® & News

Nearby

Air Quality

  Air Quality AQ Index Pollutant
Not available.

Snow Depth

Station Depth Elevation

Earthquake Activity

City Distance Mag. Time & Date
Minimum magnitude displayed is 2.5.

Coastal Water Temperatures

Place Temperature

Nearby Weather Stations